Kumamoto, Japan
Current Conditions -  °F | °C
As of 9:00 PM on Friday 31 Oct 2014 (Local Time) from RJFT Reporting Station
Light Rain Light Rain  
Wind Chill: 63°   Ceiling: 10000
Heat Index: 63°   Visibility: 6mi
Dew Point: 63°   Wind: 5mph
Humidity: 100%   Direction: 340°NNW
Pressure: 30"   Gusts: NA
Location:  32.8°N, 130.71°E
Report Text: RJFT 311200Z 34004KT 280V030 9999 -RA SCT050 OVC100 17/17 Q1016
Loading
Personal Weather Stations






























Interactive Weather Map
Tropical Storm Tracking
New forecast layout! Learn more

10-Day Weather Forecast

Advertisements
Track Severe Weather on mobile